Disclaimer

Please do not use the information listed here in-flight or in-navigation, as they are not provided to us by the airports but are provided by volunteers, so they might be outdated.

Search


Regions


Airport information page

Radio informations:
MAKHACHKALA APP - 119.7 MHz

Airport informations:
Latitude: 42° 49' 00.56" N
Longitude: 047° 39' 08.26" E
Elevation: 12 feet - 4 meters
Operating hours: 24 hour operations
Operating agency: Civil government, landing fees and diplomatic clearance may be required
Timezone: UTC+3(+4DT) - Last Sunday in March to last Sunday in October
Fuel: N/A

Runway information:
14/32 - 8662 x 138 feet< - >2640 x 42 meters
14R/32L - 8688 x 230 feet< - >2648 x 70 meters

Recent METARs:
URML 170730Z 32005MPS 5000 -DZ BR OVC008 09/08 Q1024 R32/290060 TEMPO 0500 FG SCT003 OVC011 RMK MT OBSC QFE767/1023
URML 170800Z 35004MPS 4300 -RA BR BKN003 OVC017 09/08 Q1024 R32/290060 TEMPO 0500 FG SCT003 OVC011 RMK QBB110 MT OBSC QFE767/1023
URML 170830Z 35005MPS 6000 -RA SCT003 OVC012 08/07 Q1024 R32/290060 TEMPO 0500 FG SCT003 OVC011 RMK QBB100 MT OBSC QFE767/1023

Airport on the map: